Time;durP1;ratioP1;P1;durP2;ratioP2;P2;SDS_P1;SDS_P2;PMS_P1;PMS_P2;Temp;Humidity;BMP_temperature;BMP_pressure;BME280_temperature;BME280_humidity;BME280_pressure;Samples;Min_cycle;Max_cycle;Signal;HPM_P1;HPM_P2
2022/03/10 00:00:20;;;;;;;27.10;15.48;;;-0.40;1.00;;;;;;4801591;29;20062;-90
2022/03/10 00:02:45;;;;;;;25.20;15.07;;;0.80;1.00;;;;;;4801670;29;20058;-89
2022/03/10 00:05:18;;;;;;;26.17;14.90;;;0.50;1.00;;;;;;4821260;29;20064;-90
2022/03/10 00:07:44;;;;;;;29.80;15.13;;;2.20;1.00;;;;;;4833748;29;20498;-89
2022/03/10 00:10:11;;;;;;;21.52;13.43;;;-0.10;1.00;;;;;;4792817;29;20404;-90
2022/03/10 00:12:38;;;;;;;28.02;15.75;;;0.90;1.00;;;;;;4825734;29;20053;-89
2022/03/10 00:15:07;;;;;;;30.25;16.85;;;4.60;1.00;;;;;;4805227;29;20086;-91
2022/03/10 00:17:33;;;;;;;31.07;16.53;;;1.00;1.00;;;;;;4789888;29;20054;-89
2022/03/10 00:19:58;;;;;;;25.60;15.93;;;2.10;1.00;;;;;;4821097;29;20057;-89
2022/03/10 00:22:24;;;;;;;24.65;16.27;;;1.30;1.00;;;;;;4813431;29;20083;-90
2022/03/10 00:24:50;;;;;;;27.75;16.25;;;0.70;1.00;;;;;;4820671;29;20042;-90
2022/03/10 00:27:15;;;;;;;28.42;14.70;;;1.10;1.00;;;;;;4787085;29;20088;-89
2022/03/10 00:29:41;;;;;;;26.42;15.85;;;1.20;1.00;;;;;;4816148;29;20616;-91
2022/03/10 00:32:07;;;;;;;29.80;15.48;;;0.30;1.00;;;;;;4804149;29;20058;-90
2022/03/10 00:34:33;;;;;;;25.50;14.30;;;1.20;1.00;;;;;;4801187;29;20149;-90
2022/03/10 00:36:58;;;;;;;26.33;15.18;;;1.00;1.00;;;;;;4798521;29;20408;-90
2022/03/10 00:39:25;;;;;;;22.93;13.97;;;;;;;;;;4805949;29;20066;-90
2022/03/10 00:41:51;;;;;;;32.25;14.88;;;;;;;;;;4823267;29;20065;-90
2022/03/10 00:44:17;;;;;;;27.83;16.30;;;1.20;1.00;;;;;;4790372;29;20396;-90
2022/03/10 00:46:43;;;;;;;28.80;15.85;;;2.80;1.00;;;;;;4823182;29;20203;-89
2022/03/10 00:49:08;;;;;;;33.42;16.50;;;2.90;1.80;;;;;;4823010;29;20176;-90
2022/03/10 00:51:34;;;;;;;25.60;14.70;;;1.00;1.00;;;;;;4820569;29;20473;-89
2022/03/10 00:54:00;;;;;;;27.90;16.58;;;4.00;1.00;;;;;;4827703;29;20051;-89
2022/03/10 00:56:25;;;;;;;26.67;15.95;;;3.50;1.00;;;;;;4806714;29;20751;-89
2022/03/10 00:58:51;;;;;;;29.08;15.93;;;;;;;;;;4826399;29;20174;-89
2022/03/10 01:01:17;;;;;;;28.88;14.20;;;0.80;1.00;;;;;;4804618;29;20480;-90
2022/03/10 01:03:43;;;;;;;28.60;16.95;;;1.40;3.70;;;;;;4805880;29;20054;-90
2022/03/10 01:06:09;;;;;;;30.45;16.98;;;1.40;1.00;;;;;;4801815;29;20144;-90
2022/03/10 01:08:35;;;;;;;25.60;14.93;;;1.60;1.00;;;;;;4812317;29;20042;-89
2022/03/10 01:11:00;;;;;;;26.85;13.57;;;1.40;1.00;;;;;;4809853;29;20076;-89
2022/03/10 01:13:26;;;;;;;25.85;14.95;;;3.20;1.00;;;;;;4808082;29;20050;-91
2022/03/10 01:15:52;;;;;;;27.13;16.48;;;1.10;1.00;;;;;;4804371;29;20069;-89
2022/03/10 01:18:18;;;;;;;28.50;16.23;;;1.30;1.00;;;;;;4823856;29;20042;-89
2022/03/10 01:20:47;;;;;;;24.73;13.30;;;;;;;;;;4829654;29;20409;-89
2022/03/10 01:23:12;;;;;;;27.00;15.60;;;2.60;1.00;;;;;;4818366;29;20054;-90
2022/03/10 01:25:39;;;;;;;27.45;15.57;;;2.20;1.00;;;;;;4808588;29;20150;-90
2022/03/10 01:28:07;;;;;;;28.27;15.25;;;1.60;1.00;;;;;;4808301;29;20058;-89
2022/03/10 01:30:34;;;;;;;25.50;15.30;;;;;;;;;;4805280;29;20531;-89
2022/03/10 01:32:59;;;;;;;26.05;15.05;;;1.40;1.00;;;;;;4819271;29;20051;-89
2022/03/10 01:35:26;;;;;;;30.48;16.85;;;3.50;1.00;;;;;;4786302;29;20051;-89
2022/03/10 01:37:52;;;;;;;29.05;15.43;;;2.80;1.00;;;;;;4804553;29;20707;-89
2022/03/10 01:40:19;;;;;;;28.20;16.25;;;1.40;1.00;;;;;;4806439;29;20046;-89
2022/03/10 01:42:47;;;;;;;24.27;15.18;;;3.90;1.00;;;;;;4795120;29;20065;-89
2022/03/10 01:45:14;;;;;;;30.67;15.80;;;1.80;1.00;;;;;;4818251;29;20133;-91
2022/03/10 01:47:44;;;;;;;29.90;16.42;;;1.20;1.00;;;;;;4822646;29;20054;-90
2022/03/10 01:50:12;;;;;;;31.73;17.80;;;2.10;1.00;;;;;;4810967;29;20046;-91
2022/03/10 01:52:40;;;;;;;31.40;15.63;;;3.80;1.00;;;;;;4801823;29;20054;-89
2022/03/10 01:55:06;;;;;;;28.42;17.33;;;1.20;1.00;;;;;;4827040;29;20049;-89
2022/03/10 01:57:32;;;;;;;30.95;16.58;;;0.50;1.00;;;;;;4814983;29;20624;-90
2022/03/10 01:59:58;;;;;;;32.58;16.35;;;0.90;1.00;;;;;;4821717;29;20042;-90
2022/03/10 02:02:24;;;;;;;25.35;15.70;;;-0.10;1.00;;;;;;4801056;29;20107;-89
2022/03/10 02:04:49;;;;;;;26.52;15.68;;;0.60;1.00;;;;;;4822216;29;20105;-90
2022/03/10 02:10:17;;;;;;;27.93;15.63;;;1.40;1.00;;;;;;4821869;29;20181;-91
2022/03/10 02:12:51;;;;;;;27.13;15.70;;;2.90;1.00;;;;;;4789280;29;20058;-89
2022/03/10 02:18:13;;;;;;;26.77;16.03;;;1.10;1.00;;;;;;4820594;29;20065;-90
2022/03/10 02:20:40;;;;;;;30.90;15.90;;;1.10;1.00;;;;;;4795064;29;20047;-90
2022/03/10 02:23:10;;;;;;;28.17;14.65;;;0.00;1.00;;;;;;4818985;29;20108;-90
2022/03/10 02:25:37;;;;;;;27.73;15.05;;;2.50;1.00;;;;;;4822277;29;20491;-90
2022/03/10 02:28:03;;;;;;;28.20;15.57;;;0.70;1.00;;;;;;4821831;29;20077;-90
2022/03/10 02:30:30;;;;;;;25.33;15.48;;;1.50;1.00;;;;;;4817044;29;20050;-90
2022/03/10 02:33:00;;;;;;;26.02;15.10;;;2.10;1.00;;;;;;4813030;29;20065;-89
2022/03/10 02:35:28;;;;;;;29.13;16.52;;;-0.40;1.00;;;;;;4830890;29;20117;-90
2022/03/10 02:37:54;;;;;;;28.00;16.38;;;0.70;1.00;;;;;;4821116;29;20062;-89
2022/03/10 02:40:20;;;;;;;27.05;15.20;;;1.40;1.00;;;;;;4802664;29;20106;-90
2022/03/10 02:42:46;;;;;;;25.70;16.52;;;0.10;1.00;;;;;;4791618;29;20058;-90
2022/03/10 02:45:11;;;;;;;27.43;16.17;;;0.30;1.00;;;;;;4803896;29;20659;-89
2022/03/10 02:47:38;;;;;;;29.65;17.13;;;;;;;;;;4819397;29;20046;-89
2022/03/10 02:50:06;;;;;;;28.08;17.17;;;0.50;1.00;;;;;;4802767;29;20480;-90
2022/03/10 02:52:34;;;;;;;28.87;16.70;;;0.50;1.00;;;;;;4798984;29;20054;-90
2022/03/10 02:55:00;;;;;;;29.15;16.55;;;1.90;8.00;;;;;;4780218;29;20111;-89
2022/03/10 02:57:27;;;;;;;31.30;18.50;;;1.50;15.10;;;;;;4819886;29;20114;-88
2022/03/10 02:59:56;;;;;;;31.60;17.92;;;;;;;;;;4797322;29;20100;-89
2022/03/10 03:02:23;;;;;;;28.90;17.55;;;-0.50;4.20;;;;;;4816073;29;20085;-88
2022/03/10 03:04:48;;;;;;;32.92;18.25;;;0.50;10.20;;;;;;4820134;29;20178;-91
2022/03/10 03:07:14;;;;;;;27.33;16.37;;;2.80;8.00;;;;;;4787971;29;20487;-89
2022/03/10 03:09:40;;;;;;;26.17;16.30;;;;;;;;;;4802599;29;20046;-89
2022/03/10 03:12:06;;;;;;;27.42;16.13;;;2.50;1.00;;;;;;4801868;29;20381;-90
2022/03/10 03:14:33;;;;;;;28.88;16.25;;;0.80;1.00;;;;;;4805050;29;20086;-89
2022/03/10 03:16:59;;;;;;;27.52;16.73;;;;;;;;;;4800780;29;20042;-90
2022/03/10 03:19:26;;;;;;;27.50;17.00;;;0.80;1.00;;;;;;4805477;29;20089;-88
2022/03/10 03:21:52;;;;;;;27.57;15.67;;;2.10;1.00;;;;;;4813685;29;20099;-90
2022/03/10 03:24:18;;;;;;;30.67;16.15;;;0.70;1.00;;;;;;4820412;29;20042;-90
2022/03/10 03:26:44;;;;;;;29.57;17.63;;;;;;;;;;4793996;29;20050;-89
2022/03/10 03:29:10;;;;;;;32.97;18.10;;;1.00;1.00;;;;;;4821826;29;20065;-89
2022/03/10 03:31:37;;;;;;;27.42;16.58;;;0.10;1.00;;;;;;4804536;29;20415;-89
2022/03/10 03:34:09;;;;;;;27.23;16.33;;;3.00;1.00;;;;;;4809516;29;20149;-89
2022/03/10 03:36:40;;;;;;;30.88;16.55;;;1.00;1.00;;;;;;4817916;29;20050;-89
2022/03/10 03:39:06;;;;;;;29.55;16.77;;;1.40;1.00;;;;;;4802425;29;20125;-89
2022/03/10 03:41:33;;;;;;;31.95;18.30;;;0.80;1.00;;;;;;4804690;29;20050;-89
2022/03/10 03:43:59;;;;;;;25.70;15.70;;;0.40;1.00;;;;;;4804566;29;20537;-89
2022/03/10 03:46:25;;;;;;;31.92;18.38;;;2.40;1.00;;;;;;4787345;29;20192;-91
2022/03/10 03:48:50;;;;;;;29.37;16.67;;;1.10;1.00;;;;;;4812565;29;20161;-90
2022/03/10 03:51:16;;;;;;;28.55;16.50;;;-2.20;1.00;;;;;;4804124;29;20078;-89
2022/03/10 03:53:42;;;;;;;27.88;15.88;;;1.40;1.00;;;;;;4827014;29;20763;-88
2022/03/10 03:56:07;;;;;;;25.08;15.15;;;2.20;1.00;;;;;;4797867;29;20078;-88
2022/03/10 03:58:33;;;;;;;33.40;18.10;;;1.20;1.00;;;;;;4818887;29;20106;-88
2022/03/10 04:00:59;;;;;;;30.65;16.25;;;2.40;1.00;;;;;;4788059;29;20500;-88
2022/03/10 04:03:25;;;;;;;23.75;13.18;;;1.50;1.00;;;;;;4817717;29;20038;-92
2022/03/10 04:05:50;;;;;;;25.73;15.33;;;2.20;1.00;;;;;;4801413;29;20050;-90
2022/03/10 04:08:16;;;;;;;25.70;15.18;;;1.40;1.00;;;;;;4814105;29;20053;-89
2022/03/10 04:10:42;;;;;;;27.05;16.60;;;-0.80;1.00;;;;;;4796154;29;20073;-89
2022/03/10 04:13:09;;;;;;;28.67;15.88;;;1.80;1.00;;;;;;4807062;29;20110;-89
2022/03/10 04:15:35;;;;;;;33.07;17.93;;;3.00;1.00;;;;;;4818087;29;20054;-89
2022/03/10 04:18:01;;;;;;;29.80;17.30;;;0.40;1.00;;;;;;4807069;29;20054;-89
2022/03/10 04:20:28;;;;;;;29.90;15.13;;;0.40;1.00;;;;;;4813594;29;20103;-88
2022/03/10 04:22:54;;;;;;;33.00;17.02;;;1.80;1.00;;;;;;4805529;29;20418;-89
2022/03/10 04:25:19;;;;;;;30.25;15.93;;;1.30;1.00;;;;;;4822069;29;20065;-88
2022/03/10 04:27:45;;;;;;;25.13;15.23;;;3.20;1.00;;;;;;4802781;29;20066;-88
2022/03/10 04:30:12;;;;;;;26.30;16.67;;;3.90;1.00;;;;;;4785294;29;20081;-90
2022/03/10 04:32:46;;;;;;;27.60;15.60;;;1.40;1.00;;;;;;4825461;29;20133;-89
2022/03/10 04:35:17;;;;;;;27.77;15.47;;;1.30;1.00;;;;;;4806337;29;20524;-89
2022/03/10 04:37:46;;;;;;;27.08;14.98;;;2.10;1.00;;;;;;4826085;29;20061;-90
2022/03/10 04:40:12;;;;;;;29.73;15.05;;;3.00;1.00;;;;;;4819232;29;20046;-89
2022/03/10 04:42:38;;;;;;;28.40;15.43;;;2.80;1.00;;;;;;4823838;29;20408;-89
2022/03/10 04:45:06;;;;;;;27.00;16.00;;;0.80;1.00;;;;;;4818319;29;20045;-91
2022/03/10 04:47:33;;;;;;;28.52;15.90;;;2.30;1.00;;;;;;4825161;29;20069;-89
2022/03/10 04:49:58;;;;;;;30.17;15.43;;;2.30;1.00;;;;;;4786761;29;20050;-89
2022/03/10 04:52:28;;;;;;;25.08;13.70;;;1.10;1.00;;;;;;4825086;29;20057;-89
2022/03/10 04:54:54;;;;;;;27.70;16.00;;;1.30;1.00;;;;;;4809536;29;20564;-89
2022/03/10 04:57:22;;;;;;;25.57;14.43;;;1.10;1.00;;;;;;4825971;29;20399;-89
2022/03/10 04:59:48;;;;;;;25.27;14.45;;;2.10;1.00;;;;;;4800310;29;20483;-89
2022/03/10 05:02:13;;;;;;;27.67;15.02;;;1.10;1.00;;;;;;4814921;29;20072;-90
2022/03/10 05:04:39;;;;;;;28.20;14.70;;;0.80;1.00;;;;;;4803104;29;20535;-89
2022/03/10 05:07:05;;;;;;;30.13;15.20;;;2.90;1.00;;;;;;4817965;29;20042;-89
2022/03/10 05:09:31;;;;;;;32.57;14.73;;;;;;;;;;4799593;29;20054;-91
2022/03/10 05:11:59;;;;;;;24.33;14.23;;;1.20;1.00;;;;;;4811574;29;20061;-90
2022/03/10 05:14:25;;;;;;;25.05;14.60;;;2.50;1.00;;;;;;4804999;29;20722;-89
2022/03/10 05:16:51;;;;;;;31.70;16.73;;;;;;;;;;4823651;29;20061;-92
2022/03/10 05:19:17;;;;;;;28.03;15.73;;;;;;;;;;4817805;29;20050;-88
2022/03/10 05:21:43;;;;;;;28.23;15.27;;;;;;;;;;4818598;29;20429;-90
2022/03/10 05:24:10;;;;;;;24.25;13.80;;;1.30;1.00;;;;;;4820428;29;20054;-87
2022/03/10 05:26:37;;;;;;;27.93;15.90;;;-0.30;1.00;;;;;;4815228;29;20054;-90
2022/03/10 05:29:03;;;;;;;24.67;15.93;;;;;;;;;;4801254;29;20420;-89
2022/03/10 05:31:29;;;;;;;28.90;15.45;;;1.00;1.00;;;;;;4818730;29;20057;-90
2022/03/10 05:33:55;;;;;;;26.90;16.10;;;0.90;1.00;;;;;;4775861;29;20054;-88
2022/03/10 05:36:21;;;;;;;27.13;16.60;;;0.70;1.00;;;;;;4808996;29;20137;-89
2022/03/10 05:38:46;;;;;;;28.57;16.07;;;-0.50;1.00;;;;;;4794952;29;20075;-89
2022/03/10 05:41:12;;;;;;;32.20;16.42;;;1.10;1.00;;;;;;4817812;29;20058;-89
2022/03/10 05:43:38;;;;;;;29.75;16.33;;;0.10;1.00;;;;;;4806498;29;20050;-90
2022/03/10 05:46:04;;;;;;;29.50;14.60;;;3.50;1.00;;;;;;4813032;29;20065;-90
2022/03/10 05:48:30;;;;;;;28.27;15.15;;;;;;;;;;4823003;29;20054;-91
2022/03/10 05:50:56;;;;;;;27.50;15.47;;;;;;;;;;4817493;29;20054;-91
2022/03/10 05:53:22;;;;;;;26.67;14.67;;;0.70;1.00;;;;;;4805060;29;20222;-89
2022/03/10 05:55:48;;;;;;;27.27;15.73;;;0.00;1.00;;;;;;4832876;29;20076;-90
2022/03/10 05:58:14;;;;;;;29.73;16.38;;;0.80;1.00;;;;;;4791006;29;20062;-90
2022/03/10 06:00:39;;;;;;;27.03;15.83;;;3.80;1.00;;;;;;4813253;29;20062;-90
2022/03/10 06:03:06;;;;;;;30.70;15.63;;;1.70;1.00;;;;;;4823642;29;20061;-89
2022/03/10 06:05:33;;;;;;;27.20;14.70;;;1.20;1.00;;;;;;4823435;29;20069;-90
2022/03/10 06:07:59;;;;;;;26.58;14.93;;;1.10;1.00;;;;;;4789329;29;20049;-90
2022/03/10 06:10:25;;;;;;;28.15;16.27;;;2.70;1.00;;;;;;4809638;29;20144;-90
2022/03/10 06:12:51;;;;;;;25.07;13.60;;;3.90;1.00;;;;;;4818602;29;20146;-89
2022/03/10 06:15:18;;;;;;;26.85;14.18;;;2.70;1.00;;;;;;4828148;29;20045;-89
2022/03/10 06:17:44;;;;;;;26.90;14.77;;;0.00;1.00;;;;;;4818949;29;20058;-90
2022/03/10 06:20:11;;;;;;;29.27;16.83;;;1.00;1.00;;;;;;4809653;29;20047;-90
2022/03/10 06:22:37;;;;;;;28.63;16.00;;;0.70;1.00;;;;;;4828200;29;20377;-90
2022/03/10 06:25:05;;;;;;;31.13;16.00;;;3.10;1.00;;;;;;4809322;29;20299;-90
2022/03/10 06:27:30;;;;;;;;;;;1.10;1.00;;;;;;4824999;29;20050;-90
2022/03/10 06:29:57;;;;;;;31.40;17.40;;;1.30;1.00;;;;;;4810439;29;20271;-90
2022/03/10 06:32:24;;;;;;;34.28;19.00;;;1.40;1.00;;;;;;4810211;29;20480;-90
2022/03/10 06:34:51;;;;;;;33.22;19.00;;;2.30;1.00;;;;;;4812840;29;20122;-91
2022/03/10 06:37:21;;;;;;;29.90;17.00;;;;;;;;;;4792526;29;20065;-91
2022/03/10 06:39:47;;;;;;;29.02;16.77;;;1.80;1.00;;;;;;4823042;29;20114;-92
2022/03/10 06:42:12;;;;;;;30.57;17.90;;;3.50;1.00;;;;;;4823889;29;20551;-91
2022/03/10 06:44:38;;;;;;;32.95;17.95;;;2.20;1.00;;;;;;4824076;29;20051;-90
2022/03/10 06:47:06;;;;;;;30.30;17.27;;;0.40;1.00;;;;;;4822985;29;20054;-90
2022/03/10 06:49:35;;;;;;;28.73;15.82;;;0.30;1.00;;;;;;4789281;29;20049;-89
2022/03/10 06:52:01;;;;;;;29.27;16.50;;;2.60;1.00;;;;;;4819330;29;20046;-90
2022/03/10 06:54:27;;;;;;;31.70;17.65;;;;;;;;;;4825054;29;20401;-91
2022/03/10 06:56:53;;;;;;;26.20;15.52;;;;;;;;;;4823832;29;20411;-91
2022/03/10 06:59:19;;;;;;;24.13;13.85;;;1.90;1.00;;;;;;4839333;29;20141;-91
2022/03/10 07:01:45;;;;;;;25.48;15.68;;;;;;;;;;4835905;29;20163;-90
2022/03/10 07:04:11;;;;;;;31.63;16.33;;;2.50;1.00;;;;;;4822798;29;20384;-89
2022/03/10 07:06:37;;;;;;;30.35;17.05;;;2.40;1.00;;;;;;4820180;29;20056;-92
2022/03/10 07:09:03;;;;;;;25.40;13.53;;;4.00;1.00;;;;;;4831716;29;20049;-91
2022/03/10 07:11:29;;;;;;;23.93;13.73;;;2.50;1.00;;;;;;4805491;29;20047;-91
2022/03/10 07:13:56;;;;;;;27.63;15.77;;;4.50;1.00;;;;;;4805844;29;20062;-91
2022/03/10 07:16:21;;;;;;;27.30;14.35;;;4.20;1.00;;;;;;4784525;29;20065;-91
2022/03/10 07:18:53;;;;;;;28.70;14.98;;;4.70;1.00;;;;;;4791945;29;20047;-91
2022/03/10 07:21:20;;;;;;;33.40;14.50;;;4.70;1.00;;;;;;4824519;29;20115;-89
2022/03/10 07:23:47;;;;;;;29.70;15.60;;;1.40;1.00;;;;;;4807447;29;20058;-91
2022/03/10 07:26:13;;;;;;;26.55;15.23;;;3.60;1.00;;;;;;4823435;29;20081;-90
2022/03/10 07:28:40;;;;;;;24.38;14.13;;;2.80;1.00;;;;;;4807955;29;20077;-90
2022/03/10 07:31:06;;;;;;;26.23;15.05;;;2.90;1.00;;;;;;4807407;29;20106;-90
2022/03/10 07:33:32;;;;;;;29.77;15.98;;;;;;;;;;4813438;29;20046;-91
2022/03/10 07:35:58;;;;;;;24.85;14.48;;;4.70;1.00;;;;;;4801081;29;20466;-90
2022/03/10 07:38:24;;;;;;;25.17;14.15;;;3.40;1.00;;;;;;4790116;29;20058;-91
2022/03/10 07:40:49;;;;;;;24.95;12.57;;;4.90;1.00;;;;;;4820683;29;20053;-92
2022/03/10 07:43:17;;;;;;;22.42;12.23;;;4.10;1.00;;;;;;4829252;29;20042;-91
2022/03/10 07:45:44;;;;;;;22.35;13.23;;;3.70;1.00;;;;;;4849252;29;20041;-94
2022/03/10 07:48:09;;;;;;;24.73;13.32;;;4.00;1.00;;;;;;4863993;29;20089;-92
2022/03/10 07:50:36;;;;;;;23.30;14.05;;;;;;;;;;4812605;29;20086;-91
2022/03/10 07:53:02;;;;;;;21.85;13.43;;;;;;;;;;4824055;29;20496;-91
2022/03/10 07:55:28;;;;;;;24.42;13.13;;;4.30;1.00;;;;;;4809640;29;20133;-91
2022/03/10 07:57:53;;;;;;;23.73;13.10;;;4.30;1.00;;;;;;4832223;29;20113;-91
2022/03/10 08:00:19;;;;;;;26.92;13.15;;;4.40;1.00;;;;;;4815045;29;20805;-91
2022/03/10 08:02:47;;;;;;;24.15;12.30;;;4.80;1.00;;;;;;4822703;29;20062;-92
2022/03/10 08:05:13;;;;;;;21.55;12.68;;;4.90;1.00;;;;;;4800447;29;20058;-90
2022/03/10 08:07:39;;;;;;;29.45;14.20;;;;;;;;;;4828506;29;20068;-90
2022/03/10 08:10:06;;;;;;;21.38;13.02;;;4.80;1.00;;;;;;4797558;29;20043;-92
2022/03/10 08:12:33;;;;;;;25.30;14.10;;;6.20;1.00;;;;;;4826670;29;20050;-91
2022/03/10 08:14:59;;;;;;;20.33;12.13;;;7.00;1.00;;;;;;4826540;29;20418;-91
2022/03/10 08:17:28;;;;;;;21.60;12.55;;;7.70;1.00;;;;;;4810805;29;20352;-92
2022/03/10 08:19:55;;;;;;;24.40;13.05;;;9.10;1.00;;;;;;4807971;29;20073;-91
2022/03/10 08:22:24;;;;;;;20.65;11.90;;;12.60;1.00;;;;;;4844662;29;20149;-91
2022/03/10 08:24:50;;;;;;;22.13;13.02;;;11.20;1.00;;;;;;4804318;29;20149;-92
2022/03/10 08:27:17;;;;;;;25.55;13.07;;;;;;;;;;4808388;29;20061;-92
2022/03/10 08:29:43;;;;;;;23.27;12.82;;;11.80;1.00;;;;;;4830098;29;20508;-92
2022/03/10 08:32:09;;;;;;;30.27;12.18;;;;;;;;;;4825606;29;20089;-92
2022/03/10 08:34:36;;;;;;;23.27;13.07;;;12.40;1.00;;;;;;4826440;29;20421;-92
2022/03/10 08:37:03;;;;;;;21.98;12.95;;;13.40;1.00;;;;;;4826021;29;20054;-90
2022/03/10 08:39:29;;;;;;;19.73;12.35;;;13.20;1.00;;;;;;4824903;29;20499;-90
2022/03/10 08:41:54;;;;;;;24.25;12.07;;;13.50;1.00;;;;;;4825438;29;20054;-90
2022/03/10 08:44:21;;;;;;;21.75;13.00;;;11.80;1.00;;;;;;4826873;29;20138;-90
2022/03/10 08:46:47;;;;;;;26.63;13.63;;;13.80;1.00;;;;;;4791544;29;20088;-91
2022/03/10 08:49:14;;;;;;;23.58;12.57;;;13.90;1.00;;;;;;4824125;29;20084;-90
2022/03/10 08:51:40;;;;;;;23.77;12.47;;;14.70;99.90;;;;;;4828646;29;20140;-90
2022/03/10 08:54:06;;;;;;;21.52;12.55;;;14.70;1.00;;;;;;4828356;29;20053;-91
2022/03/10 08:56:34;;;;;;;24.52;13.02;;;14.70;99.90;;;;;;4813066;29;20061;-90
2022/03/10 08:59:00;;;;;;;23.40;13.50;;;14.70;99.90;;;;;;4826391;29;20524;-90
2022/03/10 09:01:26;;;;;;;25.17;13.10;;;15.50;99.90;;;;;;4842831;29;20435;-92
2022/03/10 09:03:52;;;;;;;23.10;13.10;;;14.60;99.90;;;;;;4842888;29;20090;-91
2022/03/10 09:06:19;;;;;;;23.42;13.07;;;14.60;99.90;;;;;;4827884;29;20109;-91
2022/03/10 09:08:46;;;;;;;22.52;12.13;;;14.80;99.90;;;;;;4828014;29;20142;-92
2022/03/10 09:11:12;;;;;;;24.20;13.43;;;;;;;;;;4815621;29;20126;-91
2022/03/10 09:13:37;;;;;;;23.35;11.82;;;15.70;99.90;;;;;;4820708;29;20512;-92
2022/03/10 09:16:04;;;;;;;20.73;12.38;;;16.00;99.90;;;;;;4805996;29;20051;-90
2022/03/10 09:18:29;;;;;;;25.65;13.80;;;16.10;99.90;;;;;;4840155;29;20508;-90
2022/03/10 09:20:55;;;;;;;23.58;12.77;;;16.40;99.90;;;;;;4827230;29;20137;-91
2022/03/10 09:23:21;;;;;;;23.30;12.95;;;16.00;99.90;;;;;;4793064;29;20058;-91
2022/03/10 09:25:47;;;;;;;19.98;12.27;;;17.10;99.90;;;;;;4792811;29;20429;-91
2022/03/10 09:28:13;;;;;;;21.65;12.13;;;17.00;99.90;;;;;;4825652;29;20058;-89
2022/03/10 09:30:39;;;;;;;22.15;12.30;;;16.90;99.90;;;;;;4808760;29;20108;-91
2022/03/10 09:33:05;;;;;;;24.73;12.90;;;16.70;99.90;;;;;;4809100;29;20084;-90
2022/03/10 09:35:33;;;;;;;22.55;11.98;;;16.80;99.90;;;;;;4812121;29;20858;-90
2022/03/10 09:37:59;;;;;;;21.10;12.00;;;17.30;99.90;;;;;;4793424;29;20569;-89
2022/03/10 09:40:26;;;;;;;20.92;12.35;;;18.30;99.90;;;;;;4808240;29;20054;-90
2022/03/10 09:42:51;;;;;;;22.02;12.38;;;19.00;99.90;;;;;;4823500;29;20050;-91
2022/03/10 09:45:18;;;;;;;22.83;11.18;;;19.10;99.90;;;;;;4823408;29;20129;-90
2022/03/10 09:47:45;;;;;;;20.42;12.27;;;19.20;99.90;;;;;;4797441;29;20057;-91
2022/03/10 09:50:18;;;;;;;24.77;12.00;;;19.30;99.90;;;;;;4825999;29;20237;-92
2022/03/10 09:52:45;;;;;;;23.60;12.55;;;19.50;99.90;;;;;;4813002;29;20471;-91
2022/03/10 09:55:16;;;;;;;22.60;13.10;;;19.80;99.90;;;;;;4812910;29;20070;-90
2022/03/10 09:57:43;;;;;;;21.17;12.95;;;19.80;99.90;;;;;;4811123;29;20061;-91
2022/03/10 10:00:11;;;;;;;20.35;12.27;;;18.30;99.90;;;;;;4826430;29;20061;-90
2022/03/10 10:02:40;;;;;;;21.27;12.23;;;19.70;99.90;;;;;;4831054;29;20137;-91
2022/03/10 10:05:30;;;;;;;19.63;12.52;;;19.60;99.90;;;;;;4825336;29;20144;-91
2022/03/10 10:08:02;;;;;;;19.80;12.73;;;18.60;99.90;;;;;;4797411;29;20136;-90
2022/03/10 10:10:30;;;;;;;21.08;12.90;;;19.20;99.90;;;;;;4809502;29;20077;-91
2022/03/10 10:12:56;;;;;;;22.85;12.73;;;18.50;99.90;;;;;;4794478;29;20150;-91
2022/03/10 10:15:22;;;;;;;19.50;12.23;;;;;;;;;;4794226;29;20160;-91
2022/03/10 10:17:56;;;;;;;22.13;13.05;;;19.00;99.90;;;;;;4812270;29;20061;-91
2022/03/10 10:20:22;;;;;;;20.85;12.63;;;18.40;99.90;;;;;;4826552;29;20132;-91
2022/03/10 10:22:51;;;;;;;21.40;12.65;;;16.50;99.90;;;;;;4812122;29;20053;-91
2022/03/10 10:25:23;;;;;;;22.25;12.48;;;15.10;99.90;;;;;;4800099;29;20527;-91
2022/03/10 10:27:49;;;;;;;21.40;12.80;;;14.00;99.90;;;;;;4835007;29;20383;-90
2022/03/10 10:30:15;;;;;;;23.05;12.80;;;13.50;99.90;;;;;;4841973;29;20334;-91
2022/03/10 10:32:56;;;;;;;25.27;12.82;;;14.60;99.90;;;;;;4811648;29;20193;-92
2022/03/10 10:35:22;;;;;;;23.38;13.38;;;13.50;99.90;;;;;;4811755;29;20054;-91
2022/03/10 10:37:50;;;;;;;23.13;13.73;;;13.50;99.90;;;;;;4810583;29;20046;-90
2022/03/10 10:40:20;;;;;;;;;;;12.20;99.90;;;;;;4811172;29;20316;-89
2022/03/10 10:42:49;;;;;;;21.45;11.82;;;13.00;99.90;;;;;;4826777;29;19978;-89
2022/03/10 10:45:34;;;;;;;25.23;14.27;;;13.30;99.90;;;;;;4809366;29;20065;-92
2022/03/10 10:48:04;;;;;;;22.13;13.27;;;13.60;99.90;;;;;;4807560;29;20045;-91
2022/03/10 10:50:32;;;;;;;24.95;13.43;;;14.30;99.90;;;;;;4809858;29;20473;-91
2022/03/10 10:52:58;;;;;;;;;;;14.90;99.90;;;;;;4804104;29;20061;-92
2022/03/10 10:55:34;;;;;;;20.77;13.00;;;13.30;99.90;;;;;;4792780;29;19947;-90
2022/03/10 10:58:30;;;;;;;22.63;13.63;;;15.10;99.90;;;;;;4824252;29;20047;-91
2022/03/10 11:00:58;;;;;;;20.58;12.90;;;14.60;99.90;;;;;;4799231;29;20086;-90
2022/03/10 11:03:28;;;;;;;26.25;13.15;;;15.10;99.90;;;;;;4774137;29;20051;-90
2022/03/10 11:05:57;;;;;;;23.65;13.23;;;15.80;99.90;;;;;;4774003;29;20063;-90
2022/03/10 11:08:25;;;;;;;22.75;13.07;;;17.30;99.90;;;;;;4823589;29;20050;-90
2022/03/10 11:10:54;;;;;;;25.27;13.75;;;17.70;99.90;;;;;;4823989;29;20125;-90
2022/03/10 11:13:23;;;;;;;20.98;13.55;;;18.30;99.90;;;;;;4807235;29;20642;-90
2022/03/10 11:15:53;;;;;;;22.52;13.48;;;19.20;99.90;;;;;;4807403;29;20062;-90
2022/03/10 11:18:23;;;;;;;23.77;13.20;;;18.80;99.90;;;;;;4820533;29;20465;-90
2022/03/10 11:20:53;;;;;;;23.95;14.02;;;19.40;99.90;;;;;;4825945;29;20124;-90
2022/03/10 11:23:37;;;;;;;25.85;13.88;;;20.00;99.90;;;;;;4811008;29;20054;-89
2022/03/10 11:26:12;;;;;;;24.35;14.13;;;19.70;99.90;;;;;;4824697;29;20058;-90
2022/03/10 11:28:44;;;;;;;23.67;14.02;;;18.90;99.90;;;;;;4843712;29;20092;-89
2022/03/10 11:31:11;;;;;;;24.45;14.43;;;19.30;99.90;;;;;;4844984;29;20400;-90
2022/03/10 11:33:38;;;;;;;26.50;14.30;;;19.50;99.90;;;;;;4828779;29;20057;-90
2022/03/10 11:36:24;;;;;;;24.08;14.73;;;18.30;99.90;;;;;;4846664;29;20109;-90
2022/03/10 11:39:09;;;;;;;26.65;14.55;;;18.90;99.90;;;;;;4807881;29;20085;-89
2022/03/10 11:41:46;;;;;;;25.25;14.40;;;18.70;99.90;;;;;;4795764;29;20054;-90
2022/03/10 11:44:12;;;;;;;24.67;14.52;;;18.30;99.90;;;;;;4809850;29;20356;-89
2022/03/10 11:46:57;;;;;;;27.40;15.55;;;18.70;99.90;;;;;;4829817;29;20057;-90
2022/03/10 11:49:26;;;;;;;24.20;15.02;;;19.10;99.90;;;;;;4814639;29;20160;-90
2022/03/10 11:52:03;;;;;;;27.75;14.70;;;19.10;99.90;;;;;;4813790;29;20137;-89
2022/03/10 11:54:33;;;;;;;25.15;14.75;;;18.80;99.90;;;;;;4830317;29;20349;-89
2022/03/10 11:57:03;;;;;;;27.70;16.13;;;18.80;99.90;;;;;;4810970;29;20149;-91
2022/03/10 11:59:31;;;;;;;27.90;15.25;;;18.20;99.90;;;;;;4826539;29;20520;-90
2022/03/10 12:01:59;;;;;;;24.85;15.13;;;18.50;99.90;;;;;;4824194;29;20070;-91
2022/03/10 12:04:39;;;;;;;21.95;14.05;;;18.30;99.90;;;;;;4823819;29;20770;-91
2022/03/10 12:07:06;;;;;;;24.33;15.27;;;18.60;99.90;;;;;;4825168;29;20048;-91
2022/03/10 12:09:38;;;;;;;31.40;14.47;;;19.20;99.90;;;;;;4811405;29;20238;-90
2022/03/10 12:12:17;;;;;;;34.17;15.43;;;18.10;99.90;;;;;;4823390;29;20366;-91
2022/03/10 12:14:55;;;;;;;34.30;16.00;;;18.20;99.90;;;;;;4806984;29;20046;-92
2022/03/10 12:17:44;;;;;;;28.85;15.95;;;18.10;99.90;;;;;;4823661;29;20247;-91
2022/03/10 12:20:25;;;;;;;27.30;14.43;;;17.00;99.90;;;;;;4823020;29;20062;-91
2022/03/10 12:23:03;;;;;;;26.52;14.30;;;16.30;99.90;;;;;;4823521;29;20560;-91
2022/03/10 12:25:49;;;;;;;26.45;15.60;;;15.90;99.90;;;;;;4799635;29;20053;-85
2022/03/10 12:28:37;;;;;;;35.10;15.00;;;15.20;99.90;;;;;;4840280;29;20058;-85
2022/03/10 12:31:05;;;;;;;26.35;15.40;;;14.80;99.90;;;;;;4821592;29;20077;-86
2022/03/10 12:33:31;;;;;;;24.75;14.93;;;14.40;99.90;;;;;;4811709;29;20399;-87
2022/03/10 12:35:59;;;;;;;26.85;15.75;;;14.00;99.90;;;;;;4817046;29;20058;-85
2022/03/10 12:38:35;;;;;;;26.45;15.63;;;13.80;99.90;;;;;;4800695;29;20086;-87
2022/03/10 12:41:02;;;;;;;26.42;14.95;;;13.90;99.90;;;;;;4821535;29;20527;-86
2022/03/10 12:43:28;;;;;;;26.58;14.35;;;14.00;99.90;;;;;;4808518;29;20049;-86
2022/03/10 12:45:55;;;;;;;23.55;14.35;;;14.00;99.90;;;;;;4826370;29;20046;-87
2022/03/10 12:48:44;;;;;;;24.30;13.57;;;14.00;99.90;;;;;;4790323;29;20046;-87
2022/03/10 12:51:21;;;;;;;26.52;13.70;;;14.20;99.90;;;;;;4827626;29;20135;-89
2022/03/10 12:53:47;;;;;;;26.27;15.05;;;14.10;99.90;;;;;;4841257;29;20058;-88
2022/03/10 12:56:12;;;;;;;25.67;14.50;;;14.20;99.90;;;;;;4810952;29;20054;-86